Flight Track Log - Related Links

Times and Time Zones

All times are in EDT time to prevent confusion due to time zone crossing. See the N949SC flight status page for this flight to view local times or setup timezone preferences in your user account.

Time Position Orientation Groundspeed Altitude Reporting Facility
EDT Latitude Longitude Course Direction KTS MPH feet Rate Location/Type
Fri 02:33:58 PM 30.2633 -87.8247 259° West 178 205 4,400  Level Houston Center
Fri 02:39:44 PM 30.2700 -88.2140 259° West 208 239 5,600 485 Climbing FlightAware ADS-B
Fri 02:41:36 PM 30.3060 -88.3180 292° West 209 241 8,100 1,217 Climbing FlightAware ADS-B
Fri 02:42:02 PM 30.3060 -88.3480 270° West 215 247 8,400 900 Climbing FlightAware ADS-B
Fri 02:42:16 PM 30.3060 -88.3630 270° West 217 250 8,700 955 Climbing FlightAware ADS-B
Fri 02:42:46 PM 30.3060 -88.3980 270° West 220 253 9,100 931 Climbing FlightAware ADS-B
Fri 02:43:14 PM 30.3050 -88.4310 268° West 222 255 9,600 1,091 Climbing FlightAware ADS-B
Fri 02:43:30 PM 30.3050 -88.4510 270° West 223 257 9,900 1,034 Climbing FlightAware ADS-B
Fri 02:44:12 PM 30.3040 -88.5010 269° West 229 264 10,600 992 Climbing FlightAware ADS-B
Fri 02:47:38 PM 30.3000 -88.7680 269° West 246 283 14,000 1,000 Climbing FlightAware ADS-B
Fri 02:48:18 PM 30.2990 -88.8210 269° West 247 284 14,700 1,000 Climbing FlightAware ADS-B
Fri 02:49:02 PM 30.2980 -88.8780 269° West 249 287 15,400 857 Climbing FlightAware ADS-B
Fri 02:49:42 PM 30.2970 -88.9330 269° West 255 293 15,900 396 Climbing FlightAware ADS-B
Fri 02:50:48 PM 30.2950 -89.0260 269° West 267 307 16,100 94 Climbing FlightAware ADS-B
Fri 02:51:50 PM 30.2930 -89.1140 269° West 269 310 16,100  Level FlightAware ADS-B
Fri 02:52:34 PM 30.2920 -89.1780 269° West 270 311 16,100  Level FlightAware ADS-B
Fri 02:53:14 PM 30.2910 -89.2350 269° West 272 313 16,100  Level FlightAware ADS-B
Fri 02:53:57 PM 30.2900 -89.2970 269° West 272 313 16,100  Level FlightAware ADS-B
Fri 02:54:39 PM 30.2880 -89.3590 268° West 271 312 16,100  Level FlightAware ADS-B
Fri 02:55:43 PM 30.2860 -89.4520 269° West 271 312 16,100  Level FlightAware ADS-B
Fri 02:56:31 PM 30.2850 -89.5220 269° West 272 313 16,100  Level FlightAware ADS-B
Fri 02:57:27 PM 30.2830 -89.6020 268° West 273 314 16,100 -61 Level FlightAware ADS-B
Fri 02:58:09 PM 30.2810 -89.6650 268° West 273 314 16,000 -75 Descending FlightAware ADS-B
Fri 02:58:47 PM 30.2800 -89.7200 269° West 273 314 16,000  Level FlightAware ADS-B
Fri 02:59:35 PM 30.2780 -89.7890 268° West 274 315 16,000 47 Level FlightAware ADS-B
Fri 03:00:55 PM 30.2750 -89.9010 268° West 275 316 16,100 52 Climbing FlightAware ADS-B
Fri 03:01:31 PM 30.2740 -89.9460 269° West 275 316 16,100 -75 Level FlightAware ADS-B
Fri 03:02:15 PM 30.2720 -90.0200 268° West 275 316 16,000 -67 Descending FlightAware ADS-B
Fri 03:03:00 PM 30.2710 -90.0830 269° West 275 316 16,000  Level FlightAware ADS-B
Fri 03:03:45 PM 30.2690 -90.1540 268° West 276 318 16,000  Level FlightAware ADS-B
Fri 03:04:29 PM 30.2670 -90.2110 268° West 276 318 16,000  Level FlightAware ADS-B
Fri 03:05:08 PM 30.2660 -90.2650 269° West 275 316 16,000  Level FlightAware ADS-B
Fri 03:06:18 PM 30.2620 -90.3710 268° West 274 315 16,000  Level FlightAware ADS-B
Fri 03:07:00 PM 30.2610 -90.4320 269° West 274 315 16,000  Level FlightAware ADS-B
Fri 03:08:00 PM 30.2580 -90.5070 267° West 274 315 16,000  Level FlightAware ADS-B
Fri 03:08:36 PM 30.2570 -90.5520 269° West 274 315 16,000  Level FlightAware ADS-B
Fri 03:09:22 PM 30.2550 -90.6090 268° West 274 315 16,000  Level FlightAware ADS-B
Fri 03:10:12 PM 30.2514 -90.7186 268° West 276 318 16,000  Level Houston Center
Fri 03:11:14 PM 30.2492 -90.8061 268° West 275 316 16,000 -145 Level Houston Center
Fri 03:12:16 PM 30.2467 -90.8947 268° West 276 318 15,700 -581 Descending Houston Center
Fri 03:13:18 PM 30.2411 -90.9842 266° West 281 323 14,800 -919 Descending Houston Center
Fri 03:14:20 PM 30.2392 -91.0769 269° West 289 333 13,800 -960 Descending Houston Center
Fri 03:15:23 PM 30.2361 -91.1703 268° West 291 335 12,800 -1,104 Descending Houston Center
Fri 03:16:25 PM 30.2369 -91.2825 271° West 293 337 11,500 -871 Descending Houston Center
Fri 03:17:27 PM 30.2497 -91.3708 280° West 281 323 11,000 -290 Descending Houston Center
Fri 03:18:29 PM 30.2481 -91.4544 269° West 264 304 10,900 -774 Descending Houston Center
Fri 03:19:31 PM 30.2392 -91.5358 263° West 257 296 9,400 -1,500 Descending Houston Center
Fri 03:20:33 PM 30.2339 -91.6175 266° West 255 293 7,800 -1,742 Descending Houston Center
Fri 03:21:35 PM 30.2333 -91.7128 270° West 249 287 5,800 -1,645 Descending Houston Center
Fri 03:22:37 PM 30.2458 -91.7850 281° West 227 261 4,400 -1,355 Descending Houston Center
Fri 03:24:00 PM 30.2250 -91.8885 270° West  Level Estimated
Fri 03:31:00 PM 30.2000 -91.9833 270° West  Level FlightAware Approximate
Fri 03:32:00 PM 30.2050 -91.9877 270° West  Level Estimated

Login

Don't have an account? Register now (free) for customized features, flight alerts, and more!